createdAt,value
2019-01-31T00:00:13.220Z,0
2019-01-31T00:01:13.235Z,0
2019-01-31T00:02:13.242Z,0
2019-01-31T00:03:13.000Z,0
2019-01-31T00:04:13.174Z,0
2019-01-31T00:05:12.776Z,0
2019-01-31T00:06:13.425Z,0
2019-01-31T00:07:13.066Z,0
2019-01-31T00:08:13.078Z,0
2019-01-31T00:09:13.617Z,0
2019-01-31T00:10:13.105Z,0
2019-01-31T00:11:13.119Z,0
2019-01-31T00:12:13.158Z,0
2019-01-31T00:13:13.153Z,0
2019-01-31T00:14:13.215Z,0
2019-01-31T00:15:13.438Z,0
2019-01-31T00:16:13.195Z,0
2019-01-31T00:17:13.225Z,0
2019-01-31T00:18:13.487Z,0
2019-01-31T00:19:12.983Z,0
2019-01-31T00:20:13.516Z,0
2019-01-31T00:21:13.270Z,0
2019-01-31T00:22:13.059Z,0
2019-01-31T00:23:13.557Z,0
2019-01-31T00:24:13.572Z,0
2019-01-31T00:25:13.591Z,0
2019-01-31T00:26:13.346Z,0
2019-01-31T00:27:13.622Z,0
2019-01-31T00:28:13.374Z,0
2019-01-31T00:29:13.655Z,0
2019-01-31T00:30:13.660Z,0
2019-01-31T00:31:13.683Z,0
2019-01-31T00:32:13.949Z,0
2019-01-31T00:33:13.472Z,0
2019-01-31T00:34:13.208Z,0
2019-01-31T00:35:13.746Z,0
2019-01-31T00:36:13.494Z,0
2019-01-31T00:37:13.249Z,0
2019-01-31T00:38:13.789Z,0
2019-01-31T00:39:13.286Z,0
2019-01-31T00:40:13.813Z,0
2019-01-31T00:41:13.575Z,0
2019-01-31T00:42:13.586Z,0
2019-01-31T00:43:13.339Z,0
2019-01-31T00:44:13.880Z,0
2019-01-31T00:45:13.890Z,0
2019-01-31T00:46:13.655Z,0
2019-01-31T00:47:13.662Z,0
2019-01-31T00:48:13.951Z,0
2019-01-31T00:49:13.694Z,0
2019-01-31T00:50:13.455Z,0
2019-01-31T00:51:14.255Z,0
2019-01-31T00:52:13.736Z,0
2019-01-31T00:53:13.756Z,0
2019-01-31T00:54:13.768Z,0
2019-01-31T00:55:13.783Z,0
2019-01-31T00:56:13.538Z,0
2019-01-31T00:57:13.811Z,0
2019-01-31T00:58:13.831Z,0
2019-01-31T00:59:13.590Z,0
2019-01-31T01:00:13.864Z,0
2019-01-31T01:01:14.145Z,0
2019-01-31T01:02:13.899Z,0
2019-01-31T01:03:14.161Z,0
2019-01-31T01:04:14.177Z,0
2019-01-31T01:05:14.193Z,0
2019-01-31T01:06:13.692Z,0
2019-01-31T01:07:13.707Z,0
2019-01-31T01:08:13.984Z,0
2019-01-31T01:09:14.586Z,0
2019-01-31T01:10:14.297Z,0
2019-01-31T01:11:14.027Z,0
2019-01-31T01:12:14.296Z,0
2019-01-31T01:13:13.806Z,0
2019-01-31T01:14:14.065Z,0
2019-01-31T01:15:14.080Z,0
2019-01-31T01:16:14.095Z,0
2019-01-31T01:17:14.381Z,0
2019-01-31T01:18:14.131Z,0
2019-01-31T01:19:14.409Z,0
2019-01-31T01:20:14.169Z,0
2019-01-31T01:21:14.183Z,0
2019-01-31T01:22:14.445Z,0
2019-01-31T01:23:14.063Z,0
2019-01-31T01:24:14.218Z,0
2019-01-31T01:25:13.974Z,0
2019-01-31T01:26:14.509Z,0
2019-01-31T01:27:14.263Z,0
2019-01-31T01:28:14.276Z,0
2019-01-31T01:29:14.296Z,0
2019-01-31T01:30:14.575Z,0
2019-01-31T01:31:14.170Z,0
2019-01-31T01:32:14.080Z,0
2019-01-31T01:33:14.355Z,0
2019-01-31T01:34:14.106Z,0
2019-01-31T01:35:14.127Z,0
2019-01-31T01:36:14.659Z,0
2019-01-31T01:37:14.421Z,0
2019-01-31T01:38:14.427Z,0
2019-01-31T01:39:25.878Z,0
2019-01-31T01:40:14.198Z,0
2019-01-31T01:41:14.474Z,0
2019-01-31T01:42:14.486Z,0
2019-01-31T01:43:14.507Z,0
2019-01-31T01:44:14.520Z,0
2019-01-31T01:45:14.796Z,0
2019-01-31T01:46:15.062Z,0
2019-01-31T01:47:14.828Z,0
2019-01-31T01:48:14.577Z,0
2019-01-31T01:49:14.919Z,0
2019-01-31T01:50:14.868Z,0
2019-01-31T01:51:14.660Z,0
2019-01-31T01:52:14.383Z,0
2019-01-31T01:53:14.654Z,0
2019-01-31T01:54:14.925Z,0
2019-01-31T01:55:14.942Z,0
2019-01-31T01:56:15.350Z,0
2019-01-31T01:57:14.973Z,0
2019-01-31T01:58:14.469Z,0
2019-01-31T01:59:15.001Z,0
2019-01-31T02:00:14.548Z,0
2019-01-31T02:01:14.515Z,0
2019-01-31T02:02:14.789Z,0
2019-01-31T02:03:14.542Z,0
2019-01-31T02:04:14.558Z,0
2019-01-31T02:05:14.836Z,0
2019-01-31T02:06:15.367Z,0
2019-01-31T02:07:14.613Z,0
2019-01-31T02:08:15.143Z,0
2019-01-31T02:09:15.151Z,0
2019-01-31T02:10:14.914Z,0
2019-01-31T02:11:14.921Z,0
2019-01-31T02:12:15.199Z,0
2019-01-31T02:13:14.695Z,0
2019-01-31T02:14:14.714Z,0
2019-01-31T02:15:15.241Z,0
2019-01-31T02:16:15.004Z,0
2019-01-31T02:17:15.157Z,0
2019-01-31T02:18:15.034Z,0
2019-01-31T02:19:15.055Z,0
2019-01-31T02:20:14.800Z,0
2019-01-31T02:21:15.335Z,0
2019-01-31T02:22:15.351Z,0
2019-01-31T02:23:14.851Z,0
2019-01-31T02:24:15.387Z,0
2019-01-31T02:25:15.393Z,0
2019-01-31T02:26:15.409Z,0
2019-01-31T02:27:15.170Z,0
2019-01-31T02:28:15.693Z,0
2019-01-31T02:29:14.934Z,0
2019-01-31T02:30:15.777Z,0
2019-01-31T02:31:14.967Z,0
2019-01-31T02:32:15.407Z,0
2019-01-31T02:33:15.255Z,0
2019-01-31T02:34:15.531Z,0
2019-01-31T02:35:15.541Z,0
2019-01-31T02:36:15.561Z,0
2019-01-31T02:37:15.312Z,0
2019-01-31T02:38:15.329Z,0
2019-01-31T02:39:15.733Z,0
2019-01-31T02:40:15.635Z,0
2019-01-31T02:41:15.393Z,0
2019-01-31T02:42:15.651Z,0
2019-01-31T02:43:15.937Z,0
2019-01-31T02:44:15.680Z,0
2019-01-31T02:45:15.432Z,0
2019-01-31T02:46:15.466Z,0
2019-01-31T02:47:15.728Z,0
2019-01-31T02:48:15.746Z,0
2019-01-31T02:49:15.240Z,0
2019-01-31T02:50:15.250Z,0
2019-01-31T02:51:15.546Z,0
2019-01-31T02:52:15.795Z,0
2019-01-31T02:53:15.326Z,0
2019-01-31T02:54:15.833Z,0
2019-01-31T02:55:15.326Z,0
2019-01-31T02:56:15.601Z,0
2019-01-31T02:57:16.152Z,0
2019-01-31T02:58:15.374Z,0
2019-01-31T02:59:15.653Z,0
2019-01-31T03:00:15.693Z,0
2019-01-31T03:01:15.935Z,0
2019-01-31T03:02:15.945Z,0
2019-01-31T03:03:15.447Z,0
2019-01-31T03:04:15.722Z,0
2019-01-31T03:05:18.440Z,0
2019-01-31T03:06:15.753Z,0
2019-01-31T03:07:15.513Z,0
2019-01-31T03:08:16.300Z,0
2019-01-31T03:09:15.575Z,0
2019-01-31T03:10:16.066Z,0
2019-01-31T03:11:16.112Z,0
2019-01-31T03:12:16.111Z,0
2019-01-31T03:13:16.117Z,0
2019-01-31T03:14:17.610Z,0
2019-01-31T03:15:15.894Z,0
2019-01-31T03:16:15.898Z,0
2019-01-31T03:17:16.440Z,0
2019-01-31T03:18:15.989Z,0
2019-01-31T03:19:15.942Z,0
2019-01-31T03:20:16.481Z,0
2019-01-31T03:21:15.993Z,0
2019-01-31T03:22:16.261Z,0
2019-01-31T03:23:16.270Z,0
2019-01-31T03:24:15.779Z,0
2019-01-31T03:25:15.793Z,0
2019-01-31T03:26:16.572Z,0
2019-01-31T03:27:16.341Z,0
2019-01-31T03:28:16.334Z,0
2019-01-31T03:29:16.623Z,0
2019-01-31T03:30:16.145Z,0
2019-01-31T03:31:16.139Z,0
2019-01-31T03:32:16.176Z,0
2019-01-31T03:33:16.441Z,0
2019-01-31T03:34:16.428Z,0
2019-01-31T03:35:16.444Z,0
2019-01-31T03:36:16.199Z,0
2019-01-31T03:37:15.960Z,0
2019-01-31T03:38:16.489Z,0
2019-01-31T03:39:15.987Z,0
2019-01-31T03:40:16.282Z,0
2019-01-31T03:41:16.276Z,0
2019-01-31T03:42:16.303Z,0
2019-01-31T03:43:16.307Z,0
2019-01-31T03:44:16.603Z,0
2019-01-31T03:45:16.593Z,0
2019-01-31T03:46:16.362Z,0
2019-01-31T03:47:16.376Z,0
2019-01-31T03:48:16.642Z,0
2019-01-31T03:49:16.133Z,0
2019-01-31T03:50:16.426Z,0
2019-01-31T03:51:16.422Z,0
2019-01-31T03:52:16.699Z,0
2019-01-31T03:53:16.462Z,0
2019-01-31T03:54:16.471Z,0
2019-01-31T03:55:16.480Z,0
2019-01-31T03:56:17.965Z,0
2019-01-31T03:57:17.031Z,0
2019-01-31T03:58:16.538Z,0
2019-01-31T03:59:16.543Z,0
2019-01-31T04:00:16.829Z,0
2019-01-31T04:01:16.573Z,0
2019-01-31T04:02:16.596Z,0
2019-01-31T04:03:16.604Z,0
2019-01-31T04:04:16.621Z,0
2019-01-31T04:05:16.900Z,0
2019-01-31T04:06:16.658Z,0
2019-01-31T04:07:16.922Z,0
2019-01-31T04:08:16.685Z,0
2019-01-31T04:09:16.952Z,0
2019-01-31T04:10:25.517Z,0
2019-01-31T04:11:16.981Z,0
2019-01-31T04:12:16.995Z,0
2019-01-31T04:13:17.283Z,0
2019-01-31T04:14:16.767Z,0
2019-01-31T04:15:17.040Z,0
2019-01-31T04:16:16.799Z,0
2019-01-31T04:17:17.071Z,0
2019-01-31T04:18:16.824Z,0
2019-01-31T04:19:16.839Z,0
2019-01-31T04:20:16.598Z,0
2019-01-31T04:21:16.885Z,0
2019-01-31T04:22:16.890Z,0
2019-01-31T04:23:16.899Z,0
2019-01-31T04:24:16.915Z,0
2019-01-31T04:25:16.946Z,0
2019-01-31T04:26:16.953Z,0
2019-01-31T04:27:16.699Z,0
2019-01-31T04:28:17.091Z,0
2019-01-31T04:29:17.006Z,0
2019-01-31T04:30:17.284Z,0
2019-01-31T04:31:17.027Z,0
2019-01-31T04:32:17.554Z,0
2019-01-31T04:33:17.570Z,0
2019-01-31T04:34:16.808Z,0
2019-01-31T04:35:17.086Z,0
2019-01-31T04:36:17.359Z,0
2019-01-31T04:37:17.370Z,0
2019-01-31T04:38:19.700Z,0
2019-01-31T04:39:17.663Z,0
2019-01-31T04:40:16.894Z,0
2019-01-31T04:41:17.168Z,0
2019-01-31T04:42:17.440Z,0
2019-01-31T04:43:17.013Z,0
2019-01-31T04:44:16.960Z,0
2019-01-31T04:45:17.241Z,0
2019-01-31T04:46:17.249Z,0
2019-01-31T04:47:16.996Z,0
2019-01-31T04:48:17.273Z,0
2019-01-31T04:49:17.560Z,0
2019-01-31T04:50:17.567Z,0
2019-01-31T04:51:17.569Z,0
2019-01-31T04:52:17.069Z,0
2019-01-31T04:53:17.345Z,0
2019-01-31T04:54:17.357Z,0
2019-01-31T04:55:17.372Z,0
2019-01-31T04:56:17.747Z,0
2019-01-31T04:57:17.402Z,0
2019-01-31T04:58:17.679Z,0
2019-01-31T04:59:17.171Z,0
2019-01-31T05:00:17.448Z,0
2019-01-31T05:01:17.730Z,0
2019-01-31T05:02:17.483Z,0
2019-01-31T05:03:17.499Z,0
2019-01-31T05:04:17.772Z,0
2019-01-31T05:05:17.519Z,0
2019-01-31T05:06:17.278Z,0
2019-01-31T05:07:18.074Z,0
2019-01-31T05:08:17.309Z,0
2019-01-31T05:09:17.588Z,0
2019-01-31T05:10:17.972Z,0
2019-01-31T05:11:17.611Z,0
2019-01-31T05:12:17.888Z,0
2019-01-31T05:13:17.644Z,0
2019-01-31T05:14:17.652Z,0
2019-01-31T05:15:17.418Z,0
2019-01-31T05:16:17.681Z,0
2019-01-31T05:17:17.441Z,0
2019-01-31T05:18:17.453Z,0
2019-01-31T05:19:18.003Z,0
2019-01-31T05:20:17.745Z,0
2019-01-31T05:21:17.493Z,0
2019-01-31T05:22:18.035Z,0
2019-01-31T05:23:17.789Z,0
2019-01-31T05:24:18.057Z,0
2019-01-31T05:25:17.929Z,0
2019-01-31T05:26:18.088Z,0
2019-01-31T05:27:18.102Z,0
2019-01-31T05:28:18.129Z,0
2019-01-31T05:29:17.899Z,0
2019-01-31T05:30:18.152Z,0
2019-01-31T05:31:18.420Z,0
2019-01-31T05:32:17.913Z,0
2019-01-31T05:33:17.676Z,0
2019-01-31T05:34:17.961Z,0
2019-01-31T05:35:17.966Z,0
2019-01-31T05:36:17.983Z,0
2019-01-31T05:37:18.002Z,0
2019-01-31T05:38:20.028Z,0
2019-01-31T05:39:18.277Z,0
2019-01-31T05:40:18.039Z,0
2019-01-31T05:41:17.788Z,0
2019-01-31T05:42:18.325Z,0
2019-01-31T05:43:17.819Z,0
2019-01-31T05:44:17.836Z,0
2019-01-31T05:45:18.388Z,0
2019-01-31T05:46:20.817Z,0
2019-01-31T05:47:18.139Z,0
2019-01-31T05:48:17.895Z,0
2019-01-31T05:49:18.688Z,0
2019-01-31T05:50:18.195Z,0
2019-01-31T05:51:18.474Z,0
2019-01-31T05:52:18.215Z,0
2019-01-31T05:53:18.235Z,0
2019-01-31T05:54:18.241Z,0
2019-01-31T05:55:18.286Z,0
2019-01-31T05:56:18.278Z,0
2019-01-31T05:57:18.027Z,0
2019-01-31T05:58:18.305Z,0
2019-01-31T05:59:18.061Z,0
2019-01-31T06:00:18.336Z,0
2019-01-31T06:01:18.605Z,0
2019-01-31T06:02:18.102Z,0
2019-01-31T06:03:18.118Z,0
2019-01-31T06:04:18.652Z,0
2019-01-31T06:05:18.168Z,0
2019-01-31T06:06:18.164Z,0
2019-01-31T06:07:18.692Z,0
2019-01-31T06:08:18.713Z,0
2019-01-31T06:09:18.490Z,0
2019-01-31T06:10:18.744Z,0
2019-01-31T06:11:18.493Z,0
2019-01-31T06:12:18.249Z,0
2019-01-31T06:13:18.265Z,0
2019-01-31T06:14:18.804Z,0
2019-01-31T06:15:18.549Z,0
2019-01-31T06:16:18.824Z,0
2019-01-31T06:17:18.845Z,0
2019-01-31T06:18:19.114Z,0
2019-01-31T06:19:18.361Z,0
2019-01-31T06:20:18.883Z,0
2019-01-31T06:21:18.645Z,0
2019-01-31T06:22:19.170Z,0
2019-01-31T06:23:18.413Z,0
2019-01-31T06:24:18.949Z,0
2019-01-31T06:25:19.015Z,0
2019-01-31T06:26:18.713Z,0
2019-01-31T06:27:18.727Z,0
2019-01-31T06:28:20.075Z,0
2019-01-31T06:29:19.046Z,0
2019-01-31T06:30:18.774Z,0
2019-01-31T06:31:19.050Z,0
2019-01-31T06:32:18.541Z,0
2019-01-31T06:33:18.565Z,0
2019-01-31T06:34:19.350Z,0
2019-01-31T06:35:19.108Z,0
2019-01-31T06:36:18.855Z,0
2019-01-31T06:37:18.880Z,0
2019-01-31T06:38:18.880Z,0
2019-01-31T06:39:22.204Z,0
2019-01-31T06:40:18.922Z,0
2019-01-31T06:41:25.596Z,0
2019-01-31T06:42:19.407Z,4
2019-01-31T06:43:18.697Z,4
2019-01-31T06:44:18.970Z,0
2019-01-31T06:45:19.251Z,4
2019-01-31T06:46:19.000Z,4
2019-01-31T06:47:19.305Z,4
2019-01-31T06:48:19.049Z,4
2019-01-31T06:49:19.053Z,4
2019-01-31T06:50:19.065Z,8
2019-01-31T06:51:19.073Z,8
2019-01-31T06:52:19.350Z,8
2019-01-31T06:53:19.102Z,8
2019-01-31T06:54:19.119Z,12
2019-01-31T06:55:19.137Z,16
2019-01-31T06:56:19.147Z,20
2019-01-31T06:57:19.679Z,16
2019-01-31T06:58:19.171Z,20
2019-01-31T06:59:21.645Z,28
2019-01-31T07:00:19.202Z,28
2019-01-31T07:01:19.218Z,32
2019-01-31T07:02:19.494Z,36
2019-01-31T07:03:19.251Z,40
2019-01-31T07:04:19.267Z,44
2019-01-31T07:05:19.541Z,48
2019-01-31T07:06:19.303Z,56
2019-01-31T07:07:19.566Z,60
2019-01-31T07:08:19.058Z,68
2019-01-31T07:09:19.595Z,68
2019-01-31T07:10:19.090Z,76
2019-01-31T07:11:29.291Z,84
2019-01-31T07:12:19.638Z,92
2019-01-31T07:13:19.397Z,96
2019-01-31T07:14:19.923Z,104
2019-01-31T07:15:19.683Z,112
2019-01-31T07:16:19.439Z,120
2019-01-31T07:17:20.629Z,128
2019-01-31T07:18:19.467Z,140
2019-01-31T07:19:19.740Z,148
2019-01-31T07:20:19.501Z,152
2019-01-31T07:21:19.507Z,164
2019-01-31T07:22:19.522Z,172
2019-01-31T07:23:19.542Z,180
2019-01-31T07:24:19.811Z,192
2019-01-31T07:25:19.354Z,200
2019-01-31T07:26:19.580Z,204
2019-01-31T07:27:19.337Z,212
2019-01-31T07:28:19.611Z,216
2019-01-31T07:29:19.632Z,228
2019-01-31T07:30:19.894Z,232
2019-01-31T07:31:19.655Z,240
2019-01-31T07:32:19.927Z,248
2019-01-31T07:33:19.945Z,256
2019-01-31T07:34:19.444Z,268
2019-01-31T07:35:19.977Z,276
2019-01-31T07:36:19.729Z,284
2019-01-31T07:37:19.793Z,292
2019-01-31T07:38:19.498Z,304
2019-01-31T07:39:19.767Z,308
2019-01-31T07:40:19.784Z,316
2019-01-31T07:41:20.056Z,324
2019-01-31T07:42:19.811Z,332
2019-01-31T07:43:19.567Z,336
2019-01-31T07:44:19.848Z,340
2019-01-31T07:45:19.598Z,344
2019-01-31T07:46:19.616Z,356
2019-01-31T07:47:19.623Z,364
2019-01-31T07:48:19.649Z,380
2019-01-31T07:49:19.918Z,392
2019-01-31T07:50:19.679Z,404
2019-01-31T07:51:20.206Z,420
2019-01-31T07:52:20.535Z,444
2019-01-31T07:53:19.988Z,452
2019-01-31T07:54:19.731Z,480
2019-01-31T07:55:20.023Z,484
2019-01-31T07:56:20.319Z,488
2019-01-31T07:57:19.778Z,508
2019-01-31T07:58:22.709Z,504
2019-01-31T07:59:20.573Z,496
2019-01-31T08:00:20.083Z,528
2019-01-31T08:01:20.609Z,508
2019-01-31T08:02:20.100Z,516
2019-01-31T08:03:20.117Z,512
2019-01-31T08:04:20.386Z,512
2019-01-31T08:05:20.419Z,512
2019-01-31T08:06:20.156Z,516
2019-01-31T08:07:19.913Z,528
2019-01-31T08:08:20.194Z,544
2019-01-31T08:09:20.465Z,560
2019-01-31T08:10:20.486Z,556
2019-01-31T08:11:19.973Z,564
2019-01-31T08:12:20.255Z,580
2019-01-31T08:13:20.127Z,600
2019-01-31T08:14:20.012Z,616
2019-01-31T08:15:20.559Z,640
2019-01-31T08:16:20.050Z,660
2019-01-31T08:17:20.320Z,656
2019-01-31T08:18:20.078Z,672
2019-01-31T08:19:20.096Z,712
2019-01-31T08:20:20.362Z,808
2019-01-31T08:21:20.383Z,904
2019-01-31T08:22:20.394Z,992
2019-01-31T08:23:20.152Z,1060
2019-01-31T08:24:20.422Z,1092
2019-01-31T08:25:20.436Z,1104
2019-01-31T08:26:20.453Z,1112
2019-01-31T08:27:20.468Z,1100
2019-01-31T08:28:20.480Z,1068
2019-01-31T08:29:20.752Z,1036
2019-01-31T08:30:20.513Z,1000
2019-01-31T08:31:20.773Z,956
2019-01-31T08:32:20.537Z,904
2019-01-31T08:33:20.661Z,864
2019-01-31T08:34:20.312Z,824
2019-01-31T08:35:20.579Z,812
2019-01-31T08:36:20.594Z,784
2019-01-31T08:37:20.356Z,744
2019-01-31T08:38:20.630Z,708
2019-01-31T08:39:20.638Z,692
2019-01-31T08:40:20.398Z,672
2019-01-31T08:41:20.929Z,636
2019-01-31T08:42:20.681Z,604
2019-01-31T08:43:23.014Z,584
2019-01-31T08:44:20.975Z,584
2019-01-31T08:45:20.983Z,592
2019-01-31T08:46:21.002Z,596
2019-01-31T08:47:20.495Z,596
2019-01-31T08:48:21.284Z,588
2019-01-31T08:49:21.048Z,580
2019-01-31T08:50:20.542Z,572
2019-01-31T08:51:20.818Z,568
2019-01-31T08:52:21.088Z,576
2019-01-31T08:53:21.380Z,592
2019-01-31T08:54:20.856Z,604
2019-01-31T08:55:20.876Z,624
2019-01-31T08:56:21.145Z,644
2019-01-31T08:57:20.641Z,672
2019-01-31T08:58:20.658Z,708
2019-01-31T08:59:21.459Z,748
2019-01-31T09:00:21.465Z,792
2019-01-31T09:01:21.225Z,840
2019-01-31T09:02:20.838Z,888
2019-01-31T09:03:20.998Z,928
2019-01-31T09:04:21.006Z,960
2019-01-31T09:05:20.760Z,992
2019-01-31T09:06:22.419Z,1008
2019-01-31T09:07:21.311Z,1008
2019-01-31T09:08:20.920Z,1000
2019-01-31T09:09:21.351Z,980
2019-01-31T09:10:20.837Z,960
2019-01-31T09:11:21.107Z,940
2019-01-31T09:12:22.092Z,928
2019-01-31T09:13:21.147Z,904
2019-01-31T09:14:21.408Z,864
2019-01-31T09:15:20.907Z,820
2019-01-31T09:16:21.179Z,764
2019-01-31T09:17:20.938Z,708
2019-01-31T09:18:21.005Z,664
2019-01-31T09:19:20.963Z,628
2019-01-31T09:20:21.761Z,596
2019-01-31T09:21:21.767Z,564
2019-01-31T09:22:21.269Z,524
2019-01-31T09:23:21.802Z,480
2019-01-31T09:24:21.298Z,452
2019-01-31T09:25:21.837Z,444
2019-01-31T09:26:21.335Z,452
2019-01-31T09:27:21.601Z,460
2019-01-31T09:28:21.100Z,476
2019-01-31T09:29:21.371Z,504
2019-01-31T09:30:24.088Z,524
2019-01-31T09:31:21.143Z,556
2019-01-31T09:32:21.416Z,600
2019-01-31T09:33:21.696Z,652
2019-01-31T09:34:21.441Z,700
2019-01-31T09:35:21.471Z,740
2019-01-31T09:36:21.745Z,776
2019-01-31T09:37:21.489Z,792
2019-01-31T09:38:21.764Z,816
2019-01-31T09:39:21.531Z,828
2019-01-31T09:40:21.538Z,816
2019-01-31T09:41:22.078Z,792
2019-01-31T09:42:32.752Z,776
2019-01-31T09:43:21.884Z,776
2019-01-31T09:44:21.332Z,748
2019-01-31T09:45:21.348Z,700
2019-01-31T09:46:21.390Z,640
2019-01-31T09:47:21.637Z,584
2019-01-31T09:48:21.396Z,552
2019-01-31T09:49:21.705Z,556
2019-01-31T09:50:22.074Z,576
2019-01-31T09:51:21.956Z,608
2019-01-31T09:52:21.974Z,632
2019-01-31T09:53:21.730Z,668
2019-01-31T09:54:21.747Z,716
2019-01-31T09:55:21.758Z,756
2019-01-31T09:56:21.770Z,808
2019-01-31T09:57:22.168Z,860
2019-01-31T09:58:21.577Z,924
2019-01-31T09:59:21.555Z,992
2019-01-31T10:00:32.482Z,1092
2019-01-31T10:01:22.106Z,1172
2019-01-31T10:02:21.857Z,1272
2019-01-31T10:03:22.386Z,1376
2019-01-31T10:04:21.630Z,1468
2019-01-31T10:05:21.908Z,1540
2019-01-31T10:06:22.176Z,1576
2019-01-31T10:07:21.954Z,1572
2019-01-31T10:08:21.992Z,1532
2019-01-31T10:09:22.837Z,1460
2019-01-31T10:10:23.760Z,1352
2019-01-31T10:11:22.051Z,1192
2019-01-31T10:12:24.067Z,1032
2019-01-31T10:13:22.453Z,916
2019-01-31T10:14:22.471Z,820
2019-01-31T10:15:22.178Z,732
2019-01-31T10:16:22.534Z,656
2019-01-31T10:17:21.982Z,592
2019-01-31T10:18:22.162Z,556
2019-01-31T10:19:23.263Z,556
2019-01-31T10:20:24.905Z,584
2019-01-31T10:21:22.230Z,624
2019-01-31T10:22:23.497Z,692
2019-01-31T10:23:22.480Z,772
2019-01-31T10:24:22.310Z,852
2019-01-31T10:25:22.435Z,928
2019-01-31T10:26:22.217Z,1004
2019-01-31T10:27:22.487Z,1068
2019-01-31T10:28:22.503Z,1108
2019-01-31T10:29:22.055Z,1124
2019-01-31T10:30:22.532Z,1120
2019-01-31T10:31:22.043Z,1112
2019-01-31T10:32:22.569Z,1108
2019-01-31T10:33:22.318Z,1108
2019-01-31T10:34:24.730Z,1124
2019-01-31T10:35:22.089Z,1144
2019-01-31T10:36:23.006Z,1168
2019-01-31T10:37:22.378Z,1192
2019-01-31T10:38:22.137Z,1216
2019-01-31T10:39:22.455Z,1240
2019-01-31T10:40:22.680Z,1260
2019-01-31T10:41:22.435Z,1272
2019-01-31T10:42:22.974Z,1284
2019-01-31T10:43:22.730Z,1288
2019-01-31T10:44:22.533Z,1324
2019-01-31T10:45:26.691Z,1400
2019-01-31T10:46:22.256Z,1468
2019-01-31T10:47:22.543Z,1532
2019-01-31T10:48:22.291Z,1576
2019-01-31T10:49:22.555Z,1588
2019-01-31T10:50:22.312Z,1584
2019-01-31T10:51:22.843Z,1588
2019-01-31T10:52:23.118Z,1572
2019-01-31T10:53:22.874Z,1548
2019-01-31T10:54:22.412Z,1512
2019-01-31T10:55:22.902Z,1488
2019-01-31T10:56:22.920Z,1464
2019-01-31T10:57:22.415Z,1416
2019-01-31T10:58:23.204Z,1380
2019-01-31T10:59:22.704Z,1364
2019-01-31T11:00:22.721Z,1360
2019-01-31T11:01:23.000Z,1372
2019-01-31T11:02:22.827Z,1392
2019-01-31T11:03:22.769Z,1420
2019-01-31T11:04:22.788Z,1440
2019-01-31T11:05:23.061Z,1436
2019-01-31T11:06:23.336Z,1412
2019-01-31T11:07:22.824Z,1396
2019-01-31T11:08:22.846Z,1380
2019-01-31T11:09:22.854Z,1376
2019-01-31T11:10:22.870Z,1372
2019-01-31T11:11:23.264Z,1376
2019-01-31T11:12:22.900Z,1384
2019-01-31T11:13:22.662Z,1392
2019-01-31T11:14:22.930Z,1404
2019-01-31T11:15:22.686Z,1436
2019-01-31T11:16:23.216Z,1480
2019-01-31T11:17:23.231Z,1512
2019-01-31T11:18:23.253Z,1528
2019-01-31T11:19:23.318Z,1536
2019-01-31T11:20:22.764Z,1540
2019-01-31T11:21:23.037Z,1548
2019-01-31T11:22:23.048Z,1552
2019-01-31T11:23:23.071Z,1564
2019-01-31T11:24:23.134Z,1580
2019-01-31T11:25:22.837Z,1604
2019-01-31T11:26:23.367Z,1628
2019-01-31T11:27:23.124Z,1636
2019-01-31T11:28:23.147Z,1632
2019-01-31T11:29:23.420Z,1612
2019-01-31T11:30:23.686Z,1592
2019-01-31T11:31:23.205Z,1576
2019-01-31T11:32:23.457Z,1576
2019-01-31T11:33:23.478Z,1584
2019-01-31T11:34:34.767Z,1600
2019-01-31T11:35:23.505Z,1600
2019-01-31T11:36:23.263Z,1584
2019-01-31T11:37:23.281Z,1524
2019-01-31T11:38:23.548Z,1464
2019-01-31T11:39:23.360Z,1424
2019-01-31T11:40:23.321Z,1408
2019-01-31T11:41:23.078Z,1412
2019-01-31T11:42:23.606Z,1448
2019-01-31T11:43:23.109Z,1484
2019-01-31T11:44:23.258Z,1528
2019-01-31T11:45:23.394Z,1556
2019-01-31T11:46:23.931Z,1564
2019-01-31T11:47:23.944Z,1592
2019-01-31T11:48:23.449Z,1620
2019-01-31T11:49:23.195Z,1648
2019-01-31T11:50:23.470Z,1716
2019-01-31T11:51:23.745Z,1764
2019-01-31T11:52:23.761Z,1792
2019-01-31T11:53:23.259Z,1820
2019-01-31T11:54:23.537Z,1824
2019-01-31T11:55:23.807Z,1848
2019-01-31T11:56:23.310Z,1880
2019-01-31T11:57:23.318Z,1904
2019-01-31T11:58:23.334Z,1892
2019-01-31T11:59:23.794Z,1844
2019-01-31T12:00:23.636Z,1836
2019-01-31T12:01:23.938Z,1872
2019-01-31T12:02:23.399Z,1904
2019-01-31T12:03:23.672Z,1884
2019-01-31T12:04:23.522Z,1880
2019-01-31T12:05:23.458Z,1848
2019-01-31T12:06:23.457Z,1840
2019-01-31T12:07:23.730Z,1844
2019-01-31T12:08:23.493Z,1832
2019-01-31T12:09:24.023Z,1796
2019-01-31T12:10:23.786Z,1780
2019-01-31T12:11:24.045Z,1788
2019-01-31T12:12:24.328Z,1784
2019-01-31T12:13:30.513Z,1744
2019-01-31T12:14:23.837Z,1692
2019-01-31T12:15:23.866Z,1620
2019-01-31T12:16:23.864Z,1576
2019-01-31T12:17:24.139Z,1560
2019-01-31T12:18:23.901Z,1548
2019-01-31T12:19:24.223Z,1552
2019-01-31T12:20:24.198Z,1568
2019-01-31T12:21:23.946Z,1588
2019-01-31T12:22:23.707Z,1576
2019-01-31T12:23:24.229Z,1536
2019-01-31T12:24:23.786Z,1480
2019-01-31T12:25:24.015Z,1444
2019-01-31T12:26:23.764Z,1432
2019-01-31T12:27:24.298Z,1432
2019-01-31T12:28:24.442Z,1424
2019-01-31T12:29:23.943Z,1428
2019-01-31T12:30:24.081Z,1460
2019-01-31T12:31:23.839Z,1500
2019-01-31T12:32:23.855Z,1564
2019-01-31T12:33:23.872Z,1636
2019-01-31T12:34:24.144Z,1712
2019-01-31T12:35:24.154Z,1772
2019-01-31T12:36:24.169Z,1792
2019-01-31T12:37:24.443Z,1776
2019-01-31T12:38:24.464Z,1756
2019-01-31T12:39:24.010Z,1752
2019-01-31T12:40:23.972Z,1772
2019-01-31T12:41:24.332Z,1824
2019-01-31T12:42:24.528Z,1888
2019-01-31T12:43:34.270Z,1976
2019-01-31T12:44:24.340Z,2104
2019-01-31T12:45:24.053Z,2252
2019-01-31T12:46:24.317Z,2352
2019-01-31T12:47:24.379Z,2388
2019-01-31T12:48:24.353Z,2320
2019-01-31T12:49:24.460Z,2192
2019-01-31T12:50:24.440Z,2104
2019-01-31T12:51:24.919Z,2044
2019-01-31T12:52:24.671Z,1936
2019-01-31T12:53:24.176Z,1856
2019-01-31T12:54:24.745Z,1832
2019-01-31T12:55:24.472Z,1888
2019-01-31T12:56:24.338Z,2028
2019-01-31T12:57:24.491Z,2256
2019-01-31T12:58:35.423Z,2504
2019-01-31T12:59:24.314Z,2616
2019-01-31T13:00:24.537Z,2684
2019-01-31T13:01:24.556Z,2780
2019-01-31T13:02:24.344Z,2852
2019-01-31T13:03:24.603Z,2820
2019-01-31T13:04:27.530Z,2716
2019-01-31T13:05:24.357Z,2668
2019-01-31T13:06:24.888Z,2644
2019-01-31T13:07:24.645Z,2600
2019-01-31T13:08:24.918Z,2592
2019-01-31T13:09:24.932Z,2616
2019-01-31T13:10:24.689Z,3008
2019-01-31T13:11:24.721Z,2840
2019-01-31T13:12:24.466Z,2580
2019-01-31T13:13:24.996Z,2696
2019-01-31T13:14:25.063Z,2668
2019-01-31T13:15:25.035Z,2576
2019-01-31T13:16:24.787Z,2452
2019-01-31T13:17:25.057Z,2408
2019-01-31T13:18:25.074Z,2468
2019-01-31T13:19:24.880Z,2416
2019-01-31T13:20:25.113Z,2284
2019-01-31T13:21:27.502Z,2236
2019-01-31T13:22:24.878Z,2012
2019-01-31T13:23:25.048Z,1916
2019-01-31T13:24:25.168Z,1844
2019-01-31T13:25:25.179Z,1472
2019-01-31T13:26:24.949Z,1324
2019-01-31T13:27:24.957Z,1212
2019-01-31T13:28:25.227Z,1132
2019-01-31T13:29:24.856Z,1140
2019-01-31T13:30:24.756Z,1080
2019-01-31T13:31:25.016Z,1020
2019-01-31T13:32:25.302Z,1024
2019-01-31T13:33:25.311Z,1128
2019-01-31T13:34:25.374Z,1188
2019-01-31T13:35:25.423Z,1196
2019-01-31T13:36:24.838Z,1176
2019-01-31T13:37:25.117Z,1144
2019-01-31T13:38:25.122Z,1116
2019-01-31T13:39:25.032Z,1072
2019-01-31T13:40:25.157Z,1012
2019-01-31T13:41:25.436Z,956
2019-01-31T13:42:25.188Z,964
2019-01-31T13:43:25.202Z,988
2019-01-31T13:44:25.227Z,1004
2019-01-31T13:45:24.974Z,972
2019-01-31T13:46:25.043Z,1004
2019-01-31T13:47:25.006Z,1008
2019-01-31T13:48:25.545Z,856
2019-01-31T13:49:25.812Z,816
2019-01-31T13:50:25.350Z,768
2019-01-31T13:51:25.328Z,732
2019-01-31T13:52:25.346Z,712
2019-01-31T13:53:25.363Z,704
2019-01-31T13:54:25.170Z,784
2019-01-31T13:55:25.656Z,780
2019-01-31T13:56:25.403Z,812
2019-01-31T13:57:25.680Z,848
2019-01-31T13:58:25.431Z,852
2019-01-31T13:59:26.810Z,868
2019-01-31T14:00:25.233Z,892
2019-01-31T14:01:25.475Z,932
2019-01-31T14:02:26.032Z,976
2019-01-31T14:03:26.052Z,980
2019-01-31T14:04:26.047Z,988
2019-01-31T14:05:25.630Z,992
2019-01-31T14:06:25.567Z,972
2019-01-31T14:07:27.526Z,1008